This is the latest recevied weather packets stored in our database for station/object PA3GJX-13. If no packets are shown the sender has not sent any weather packets the latest 10 day(s).
| Time | Temp. | Humidity | Pressure | Rain* | Wind** | Luminosity | Snow |
|---|---|---|---|---|---|---|---|
| 1777577736 | 26.11° C | 24% | 1040.3 hPa | - | - | - | - |
| 1777576535 | 26.67° C | 24% | 1040.3 hPa | - | - | - | - |
| 1777575335 | 27.22° C | 23% | 1040 hPa | - | - | - | - |
| 1777574135 | 27.78° C | 23% | 1039.9 hPa | - | - | - | - |
| 1777572935 | 28.33° C | 23% | 1039.9 hPa | - | - | - | - |
| 1777571735 | 28.33° C | 23% | 1039.8 hPa | - | - | - | - |
| 1777570535 | 28.89° C | 22% | 1039.8 hPa | - | - | - | - |
| 1777569335 | 28.89° C | 21% | 1039.8 hPa | - | - | - | - |
| 1777568135 | 28.89° C | 22% | 1040.1 hPa | - | - | - | - |
| 1777566935 | 28.89° C | 21% | 1040.3 hPa | - | - | - | - |
| 1777565736 | 28.89° C | 20% | 1040.3 hPa | - | - | - | - |
| 1777564535 | 28.33° C | 20% | 1040.4 hPa | - | - | - | - |
| 1777563335 | 28.33° C | 21% | 1040.5 hPa | - | - | - | - |
| 1777562135 | 28.33° C | 21% | 1040.6 hPa | - | - | - | - |
| 1777560935 | 28.33° C | 21% | 1040.7 hPa | - | - | - | - |
| 1777559735 | 28.33° C | 20% | 1040.8 hPa | - | - | - | - |
| 1777558535 | 27.78° C | 20% | 1041 hPa | - | - | - | - |
| 1777557335 | 27.22° C | 20% | 1041.2 hPa | - | - | - | - |
| 1777556135 | 26.67° C | 21% | 1041.5 hPa | - | - | - | - |
| 1777554937 | 26.11° C | 22% | 1041.5 hPa | - | - | - | - |
| 1777553735 | 25.56° C | 23% | 1041.8 hPa | - | - | - | - |
| 1777552535 | 25.56° C | 23% | 1041.9 hPa | - | - | - | - |
| 1777551335 | 25° C | 24% | 1041.9 hPa | - | - | - | - |
| 1777550135 | 25° C | 23% | 1042.2 hPa | - | - | - | - |
| 1777548934 | 23.89° C | 23% | 1042.5 hPa | - | - | - | - |
* Rain since midnight (hover to see other rain measurements)
** Current wind speed in m/s (hover to see current wind gust speed)